sensor_id;sensor_type;location;lat;lon;timestamp;pressure;altitude;pressure_sealevel;temperature;humidity
7264;BME280;3673;52.480;13.348;2023-02-19T00:01:06;101008.31;;;11.72;59.24
7264;BME280;3673;52.480;13.348;2023-02-19T00:03:35;101016.13;;;11.68;58.88
7264;BME280;3673;52.480;13.348;2023-02-19T00:06:04;101015.28;;;11.35;60.26
7264;BME280;3673;52.480;13.348;2023-02-19T00:08:31;101016.13;;;12.00;58.73
7264;BME280;3673;52.480;13.348;2023-02-19T00:11:01;101005.69;;;11.80;59.23
7264;BME280;3673;52.480;13.348;2023-02-19T00:13:28;101006.56;;;11.77;59.11
7264;BME280;3673;52.480;13.348;2023-02-19T00:15:54;101009.13;;;11.88;59.03
7264;BME280;3673;52.480;13.348;2023-02-19T00:18:22;101009.16;;;11.90;58.90
7264;BME280;3673;52.480;13.348;2023-02-19T00:20:50;101004.78;;;11.78;59.60
7264;BME280;3673;52.480;13.348;2023-02-19T00:23:17;101004.81;;;11.70;59.60
7264;BME280;3673;52.480;13.348;2023-02-19T00:25:44;101003.88;;;12.00;59.17
7264;BME280;3673;52.480;13.348;2023-02-19T00:28:11;101010.94;;;11.74;59.88
7264;BME280;3673;52.480;13.348;2023-02-19T00:30:37;100996.88;;;11.98;59.79
7264;BME280;3673;52.480;13.348;2023-02-19T00:33:04;100991.72;;;11.51;61.15
7264;BME280;3673;52.480;13.348;2023-02-19T00:35:33;100985.50;;;12.02;60.19
7264;BME280;3673;52.480;13.348;2023-02-19T00:38:01;100981.16;;;11.98;60.16
7264;BME280;3673;52.480;13.348;2023-02-19T00:40:29;100983.75;;;12.05;60.17
7264;BME280;3673;52.480;13.348;2023-02-19T00:42:55;100975.97;;;11.82;60.93
7264;BME280;3673;52.480;13.348;2023-02-19T00:45:22;100977.69;;;11.94;60.34
7264;BME280;3673;52.480;13.348;2023-02-19T00:47:49;100975.84;;;12.14;60.18
7264;BME280;3673;52.480;13.348;2023-02-19T00:50:16;100979.41;;;12.00;60.55
7264;BME280;3673;52.480;13.348;2023-02-19T00:52:43;100980.31;;;11.86;61.10
7264;BME280;3673;52.480;13.348;2023-02-19T00:55:11;100989.88;;;12.01;60.33
7264;BME280;3673;52.480;13.348;2023-02-19T00:57:38;100986.47;;;11.16;62.46
7264;BME280;3673;52.480;13.348;2023-02-19T01:00:06;100975.97;;;11.31;62.51
7264;BME280;3673;52.480;13.348;2023-02-19T01:02:33;100972.50;;;11.47;61.38
7264;BME280;3673;52.480;13.348;2023-02-19T01:04:59;100970.75;;;11.57;61.72
7264;BME280;3673;52.480;13.348;2023-02-19T01:07:26;100969.84;;;11.86;60.61
7264;BME280;3673;52.480;13.348;2023-02-19T01:09:53;100969.81;;;11.93;60.64
7264;BME280;3673;52.480;13.348;2023-02-19T01:12:21;100967.25;;;11.43;61.81
7264;BME280;3673;52.480;13.348;2023-02-19T01:14:50;100962.84;;;11.81;60.80
7264;BME280;3673;52.480;13.348;2023-02-19T01:17:17;100954.13;;;11.70;60.70
7264;BME280;3673;52.480;13.348;2023-02-19T01:19:44;100954.13;;;11.80;60.18
7264;BME280;3673;52.480;13.348;2023-02-19T01:22:10;100956.72;;;11.93;59.78
7264;BME280;3673;52.480;13.348;2023-02-19T01:24:37;100944.50;;;11.58;60.79
7264;BME280;3673;52.480;13.348;2023-02-19T01:27:04;100920.91;;;11.64;60.53
7264;BME280;3673;52.480;13.348;2023-02-19T01:29:32;100905.09;;;12.05;59.96
7264;BME280;3673;52.480;13.348;2023-02-19T01:31:59;100908.50;;;12.24;59.87
7264;BME280;3673;52.480;13.348;2023-02-19T01:34:26;100902.56;;;11.87;59.74
7264;BME280;3673;52.480;13.348;2023-02-19T01:36:55;100920.97;;;11.43;59.98
7264;BME280;3673;52.480;13.348;2023-02-19T01:39:21;100927.94;;;11.53;60.54
7264;BME280;3673;52.480;13.348;2023-02-19T01:41:48;100922.69;;;11.64;60.18
7264;BME280;3673;52.480;13.348;2023-02-19T01:47:58;100913.09;;;11.70;59.77
7264;BME280;3673;52.480;13.348;2023-02-19T01:50:28;100914.88;;;11.24;60.36
7264;BME280;3673;52.480;13.348;2023-02-19T01:52:59;100908.75;;;11.50;59.76
7264;BME280;3673;52.480;13.348;2023-02-19T01:55:29;100903.47;;;11.72;58.23
7264;BME280;3673;52.480;13.348;2023-02-19T01:57:55;100899.13;;;11.49;58.09
7264;BME280;3673;52.480;13.348;2023-02-19T02:00:22;100901.66;;;11.94;56.70
7264;BME280;3673;52.480;13.348;2023-02-19T02:02:53;100897.28;;;11.90;57.03
7264;BME280;3673;52.480;13.348;2023-02-19T02:05:35;100893.78;;;11.91;56.91
7264;BME280;3673;52.480;13.348;2023-02-19T02:08:05;100884.16;;;11.96;56.24
7264;BME280;3673;52.480;13.348;2023-02-19T02:10:50;100886.84;;;11.82;56.40
7264;BME280;3673;52.480;13.348;2023-02-19T02:13:17;100877.25;;;11.65;56.31
7264;BME280;3673;52.480;13.348;2023-02-19T02:15:53;100890.31;;;11.81;55.90
7264;BME280;3673;52.480;13.348;2023-02-19T02:18:34;100890.34;;;11.71;55.56
7264;BME280;3673;52.480;13.348;2023-02-19T02:21:21;100892.94;;;11.84;55.40
7264;BME280;3673;52.480;13.348;2023-02-19T02:24:10;100899.00;;;11.99;55.07
7264;BME280;3673;52.480;13.348;2023-02-19T02:26:54;100891.22;;;11.76;55.26
7264;BME280;3673;52.480;13.348;2023-02-19T02:32:44;100892.19;;;11.34;55.76
7264;BME280;3673;52.480;13.348;2023-02-19T02:35:21;100893.00;;;11.59;56.18
7264;BME280;3673;52.480;13.348;2023-02-19T02:37:49;100882.56;;;11.34;55.95
7264;BME280;3673;52.480;13.348;2023-02-19T02:40:18;100880.84;;;11.23;55.83
7264;BME280;3673;52.480;13.348;2023-02-19T02:42:46;100879.06;;;11.51;55.22
7264;BME280;3673;52.480;13.348;2023-02-19T02:45:25;100873.75;;;11.66;54.79
7264;BME280;3673;52.480;13.348;2023-02-19T02:48:17;100872.88;;;11.77;54.84
7264;BME280;3673;52.480;13.348;2023-02-19T02:50:51;100875.44;;;11.94;54.25
7264;BME280;3673;52.480;13.348;2023-02-19T02:53:25;100874.63;;;11.62;55.73
7264;BME280;3673;52.480;13.348;2023-02-19T02:56:13;100879.03;;;11.60;55.27
7264;BME280;3673;52.480;13.348;2023-02-19T02:58:41;100881.66;;;11.52;55.40
7264;BME280;3673;52.480;13.348;2023-02-19T03:01:13;100883.38;;;11.55;55.59
7264;BME280;3673;52.480;13.348;2023-02-19T03:04:02;100889.53;;;11.51;55.65
7264;BME280;3673;52.480;13.348;2023-02-19T03:06:33;100891.25;;;11.53;55.83
7264;BME280;3673;52.480;13.348;2023-02-19T03:09:08;100880.81;;;11.43;55.90
7264;BME280;3673;52.480;13.348;2023-02-19T03:11:40;100890.44;;;11.41;56.43
7264;BME280;3673;52.480;13.348;2023-02-19T03:14:32;100886.94;;;11.14;55.79
7264;BME280;3673;52.480;13.348;2023-02-19T03:17:25;100898.28;;;11.33;55.70
7264;BME280;3673;52.480;13.348;2023-02-19T03:20:14;100901.81;;;11.03;56.05
7264;BME280;3673;52.480;13.348;2023-02-19T03:22:44;100905.28;;;11.29;55.61
7264;BME280;3673;52.480;13.348;2023-02-19T03:25:16;100907.03;;;10.99;55.81
7264;BME280;3673;52.480;13.348;2023-02-19T03:28:05;100911.38;;;10.98;55.43
7264;BME280;3673;52.480;13.348;2023-02-19T03:30:36;100918.38;;;10.76;55.51
7264;BME280;3673;52.480;13.348;2023-02-19T03:33:09;100912.25;;;11.02;54.58
7264;BME280;3673;52.480;13.348;2023-02-19T03:35:42;100918.38;;;10.87;55.42
7264;BME280;3673;52.480;13.348;2023-02-19T03:38:14;100912.25;;;10.71;56.07
7264;BME280;3673;52.480;13.348;2023-02-19T03:40:50;100922.72;;;10.77;56.28
7264;BME280;3673;52.480;13.348;2023-02-19T03:43:23;100907.91;;;10.82;55.83
7264;BME280;3673;52.480;13.348;2023-02-19T03:45:59;100916.63;;;10.86;55.33
7264;BME280;3673;52.480;13.348;2023-02-19T03:48:35;100923.59;;;10.60;55.81
7264;BME280;3673;52.480;13.348;2023-02-19T03:51:17;100919.22;;;10.65;55.41
7264;BME280;3673;52.480;13.348;2023-02-19T03:53:52;100927.94;;;10.50;55.48
7264;BME280;3673;52.480;13.348;2023-02-19T03:56:27;100923.53;;;10.43;54.69
7264;BME280;3673;52.480;13.348;2023-02-19T03:59:00;100937.28;;;9.97;54.63
7264;BME280;3673;52.480;13.348;2023-02-19T04:01:33;100929.59;;;10.34;54.51
7264;BME280;3673;52.480;13.348;2023-02-19T04:04:11;100934.66;;;9.94;55.21
7264;BME280;3673;52.480;13.348;2023-02-19T04:06:42;100942.69;;;10.33;53.95
7264;BME280;3673;52.480;13.348;2023-02-19T04:09:12;100937.47;;;10.39;54.19
7264;BME280;3673;52.480;13.348;2023-02-19T04:11:40;100950.50;;;10.22;54.91
7264;BME280;3673;52.480;13.348;2023-02-19T04:14:10;100944.41;;;10.29;55.56
7264;BME280;3673;52.480;13.348;2023-02-19T04:16:41;100948.75;;;10.17;55.19
7264;BME280;3673;52.480;13.348;2023-02-19T04:19:16;100949.59;;;10.19;55.41
7264;BME280;3673;52.480;13.348;2023-02-19T04:21:46;100953.09;;;10.19;55.26
7264;BME280;3673;52.480;13.348;2023-02-19T04:24:20;100953.03;;;10.07;55.47
7264;BME280;3673;52.480;13.348;2023-02-19T04:26:48;100965.22;;;10.08;55.63
7264;BME280;3673;52.480;13.348;2023-02-19T04:29:15;100958.19;;;9.98;56.03
7264;BME280;3673;52.480;13.348;2023-02-19T04:31:42;100966.13;;;10.15;56.25
7264;BME280;3673;52.480;13.348;2023-02-19T04:34:09;100970.53;;;10.19;56.40
7264;BME280;3673;52.480;13.348;2023-02-19T04:36:37;100966.84;;;9.83;56.04
7264;BME280;3673;52.480;13.348;2023-02-19T04:39:04;100966.81;;;9.82;56.48
7264;BME280;3673;52.480;13.348;2023-02-19T04:41:32;100975.66;;;10.04;56.14
7264;BME280;3673;52.480;13.348;2023-02-19T04:43:59;100966.94;;;10.03;56.70
7264;BME280;3673;52.480;13.348;2023-02-19T04:46:26;100985.38;;;10.26;55.84
7264;BME280;3673;52.480;13.348;2023-02-19T04:48:53;100981.03;;;10.29;55.73
7264;BME280;3673;52.480;13.348;2023-02-19T04:51:19;100976.50;;;10.00;55.64
7264;BME280;3673;52.480;13.348;2023-02-19T04:53:48;100972.88;;;9.73;55.94
7264;BME280;3673;52.480;13.348;2023-02-19T04:56:16;100976.47;;;9.98;55.07
7264;BME280;3673;52.480;13.348;2023-02-19T04:58:44;100980.00;;;10.03;55.59
7264;BME280;3673;52.480;13.348;2023-02-19T05:01:11;100982.56;;;9.96;55.45
7264;BME280;3673;52.480;13.348;2023-02-19T05:03:39;100981.72;;;10.04;55.64
7264;BME280;3673;52.480;13.348;2023-02-19T05:06:08;100984.19;;;9.74;55.91
7264;BME280;3673;52.480;13.348;2023-02-19T05:08:36;100988.56;;;9.73;56.21
7264;BME280;3673;52.480;13.348;2023-02-19T05:11:07;100974.72;;;9.93;55.45
7264;BME280;3673;52.480;13.348;2023-02-19T05:13:35;100988.75;;;10.07;55.87
7264;BME280;3673;52.480;13.348;2023-02-19T05:16:05;100994.56;;;9.60;56.98
7264;BME280;3673;52.480;13.348;2023-02-19T05:18:33;100985.13;;;9.83;56.54
7264;BME280;3673;52.480;13.348;2023-02-19T05:21:00;100984.16;;;9.71;56.46
7264;BME280;3673;52.480;13.348;2023-02-19T05:23:27;100991.16;;;9.73;56.52
7264;BME280;3673;52.480;13.348;2023-02-19T05:25:54;100979.00;;;9.80;56.22
7264;BME280;3673;52.480;13.348;2023-02-19T05:28:23;100984.31;;;9.98;56.17
7264;BME280;3673;52.480;13.348;2023-02-19T05:30:54;100987.81;;;9.96;56.60
7264;BME280;3673;52.480;13.348;2023-02-19T05:33:24;100994.59;;;9.66;56.26
7264;BME280;3673;52.480;13.348;2023-02-19T05:35:53;100987.84;;;10.00;55.57
7264;BME280;3673;52.480;13.348;2023-02-19T05:38:21;100984.41;;;10.13;55.41
7264;BME280;3673;52.480;13.348;2023-02-19T05:40:49;100991.31;;;10.02;55.34
7264;BME280;3673;52.480;13.348;2023-02-19T05:43:16;100993.97;;;10.04;55.31
7264;BME280;3673;52.480;13.348;2023-02-19T05:45:44;100997.59;;;10.27;55.14
7264;BME280;3673;52.480;13.348;2023-02-19T05:48:11;100992.94;;;9.79;55.96
7264;BME280;3673;52.480;13.348;2023-02-19T05:50:38;100996.69;;;10.20;55.42
7264;BME280;3673;52.480;13.348;2023-02-19T05:53:05;100994.91;;;10.18;55.53
7264;BME280;3673;52.480;13.348;2023-02-19T05:55:34;100996.47;;;9.92;55.65
7264;BME280;3673;52.480;13.348;2023-02-19T05:58:01;101002.66;;;10.04;55.76
7264;BME280;3673;52.480;13.348;2023-02-19T06:00:29;101008.88;;;10.27;55.23
7264;BME280;3673;52.480;13.348;2023-02-19T06:02:59;101011.38;;;10.05;55.70
7264;BME280;3673;52.480;13.348;2023-02-19T06:05:26;101011.38;;;10.08;55.14
7264;BME280;3673;52.480;13.348;2023-02-19T06:07:52;101008.78;;;10.06;55.53
7264;BME280;3673;52.480;13.348;2023-02-19T06:10:19;101000.09;;;10.10;55.33
7264;BME280;3673;52.480;13.348;2023-02-19T06:12:46;101007.81;;;9.91;55.10
7264;BME280;3673;52.480;13.348;2023-02-19T06:15:13;101022.16;;;9.31;56.73
7264;BME280;3673;52.480;13.348;2023-02-19T06:17:39;101018.06;;;9.60;55.98
7264;BME280;3673;52.480;13.348;2023-02-19T06:20:09;101008.66;;;9.83;55.61
7264;BME280;3673;52.480;13.348;2023-02-19T06:22:36;101010.22;;;9.57;56.09
7264;BME280;3673;52.480;13.348;2023-02-19T06:25:03;100992.84;;;9.68;55.45
7264;BME280;3673;52.480;13.348;2023-02-19T06:27:32;100998.50;;;9.14;56.49
7264;BME280;3673;52.480;13.348;2023-02-19T06:29:59;101014.31;;;9.29;56.45
7264;BME280;3673;52.480;13.348;2023-02-19T06:32:26;101013.72;;;9.65;55.83
7264;BME280;3673;52.480;13.348;2023-02-19T06:34:52;101026.13;;;9.94;55.19
7264;BME280;3673;52.480;13.348;2023-02-19T06:37:20;101035.63;;;9.79;54.87
7264;BME280;3673;52.480;13.348;2023-02-19T06:39:47;101034.63;;;9.64;55.45
7264;BME280;3673;52.480;13.348;2023-02-19T06:42:15;101047.56;;;9.49;55.72
7264;BME280;3673;52.480;13.348;2023-02-19T06:44:42;101057.88;;;9.35;56.23
7264;BME280;3673;52.480;13.348;2023-02-19T06:47:09;101065.84;;;9.49;56.17
7264;BME280;3673;52.480;13.348;2023-02-19T06:49:36;101073.72;;;9.53;55.42
7264;BME280;3673;52.480;13.348;2023-02-19T06:52:04;101073.72;;;9.53;55.94
7264;BME280;3673;52.480;13.348;2023-02-19T06:54:32;101082.28;;;9.39;56.22
7264;BME280;3673;52.480;13.348;2023-02-19T06:56:59;101085.97;;;9.60;56.17
7264;BME280;3673;52.480;13.348;2023-02-19T06:59:26;101086.28;;;9.03;57.55
7264;BME280;3673;52.480;13.348;2023-02-19T07:01:53;101100.41;;;9.22;57.00
7264;BME280;3673;52.480;13.348;2023-02-19T07:04:20;101091.69;;;9.21;57.14
7264;BME280;3673;52.480;13.348;2023-02-19T07:06:47;101091.56;;;9.09;57.31
7264;BME280;3673;52.480;13.348;2023-02-19T07:09:13;101102.59;;;8.86;58.11
7264;BME280;3673;52.480;13.348;2023-02-19T07:11:41;101106.06;;;8.85;58.34
7264;BME280;3673;52.480;13.348;2023-02-19T07:14:14;101102.34;;;8.64;58.44
7264;BME280;3673;52.480;13.348;2023-02-19T07:16:41;101112.09;;;8.79;58.50
7264;BME280;3673;52.480;13.348;2023-02-19T07:19:09;101109.84;;;9.09;58.53
7264;BME280;3673;52.480;13.348;2023-02-19T07:21:36;101107.59;;;8.66;58.98
7264;BME280;3673;52.480;13.348;2023-02-19T07:24:03;101122.69;;;8.93;58.41
7264;BME280;3673;52.480;13.348;2023-02-19T07:26:30;101116.59;;;8.92;58.12
7264;BME280;3673;52.480;13.348;2023-02-19T07:28:59;101119.13;;;8.86;58.15
7264;BME280;3673;52.480;13.348;2023-02-19T07:31:27;101121.19;;;8.44;59.54
7264;BME280;3673;52.480;13.348;2023-02-19T07:33:54;101135.78;;;8.96;58.37
7264;BME280;3673;52.480;13.348;2023-02-19T07:36:22;101134.97;;;9.00;58.22
7264;BME280;3673;52.480;13.348;2023-02-19T07:38:53;101137.72;;;9.13;58.11
7264;BME280;3673;52.480;13.348;2023-02-19T07:41:21;101147.34;;;8.50;58.94
7264;BME280;3673;52.480;13.348;2023-02-19T07:43:48;101143.09;;;8.58;59.32
7264;BME280;3673;52.480;13.348;2023-02-19T07:46:16;101150.13;;;8.62;58.90
7264;BME280;3673;52.480;13.348;2023-02-19T07:48:44;101149.38;;;8.72;58.91
7264;BME280;3673;52.480;13.348;2023-02-19T07:51:13;101152.06;;;8.76;58.76
7264;BME280;3673;52.480;13.348;2023-02-19T07:53:43;101161.69;;;8.81;58.38
7264;BME280;3673;52.480;13.348;2023-02-19T07:56:11;101163.59;;;8.95;58.16
7264;BME280;3673;52.480;13.348;2023-02-19T07:58:39;101172.47;;;8.45;59.35
7264;BME280;3673;52.480;13.348;2023-02-19T08:01:08;101189.72;;;8.35;59.40
7264;BME280;3673;52.480;13.348;2023-02-19T08:03:36;101199.50;;;8.50;58.89
7264;BME280;3673;52.480;13.348;2023-02-19T08:06:03;101192.91;;;8.76;58.72
7264;BME280;3673;52.480;13.348;2023-02-19T08:08:30;101196.84;;;9.10;57.83
7264;BME280;3673;52.480;13.348;2023-02-19T08:10:59;101212.81;;;9.36;57.09
7264;BME280;3673;52.480;13.348;2023-02-19T08:13:46;101196.00;;;9.12;57.39
7264;BME280;3673;52.480;13.348;2023-02-19T08:16:13;101210.31;;;9.48;57.23
7264;BME280;3673;52.480;13.348;2023-02-19T08:18:43;101218.38;;;8.95;57.05
7264;BME280;3673;52.480;13.348;2023-02-19T08:21:10;101220.84;;;9.52;56.46
7264;BME280;3673;52.480;13.348;2023-02-19T08:23:38;101227.81;;;9.55;56.36
7264;BME280;3673;52.480;13.348;2023-02-19T08:26:05;101229.56;;;9.56;55.67
7264;BME280;3673;52.480;13.348;2023-02-19T08:28:34;101242.50;;;9.44;55.77
7264;BME280;3673;52.480;13.348;2023-02-19T08:31:05;101251.50;;;8.99;56.30
7264;BME280;3673;52.480;13.348;2023-02-19T08:33:32;101256.25;;;9.29;56.00
7264;BME280;3673;52.480;13.348;2023-02-19T08:36:03;101262.72;;;9.61;55.31
7264;BME280;3673;52.480;13.348;2023-02-19T08:38:31;101262.63;;;8.86;56.06
7264;BME280;3673;52.480;13.348;2023-02-19T08:41:03;101271.50;;;8.99;56.33
7264;BME280;3673;52.480;13.348;2023-02-19T08:43:31;101272.50;;;9.08;56.54
7264;BME280;3673;52.480;13.348;2023-02-19T08:45:58;101281.97;;;9.00;55.57
7264;BME280;3673;52.480;13.348;2023-02-19T08:48:24;101283.84;;;9.10;55.48
7264;BME280;3673;52.480;13.348;2023-02-19T08:50:54;101292.13;;;8.82;56.18
7264;BME280;3673;52.480;13.348;2023-02-19T08:53:23;101298.47;;;8.99;55.31
7264;BME280;3673;52.480;13.348;2023-02-19T08:55:50;101286.59;;;9.21;55.19
7264;BME280;3673;52.480;13.348;2023-02-19T08:58:17;101288.34;;;9.22;55.75
7264;BME280;3673;52.480;13.348;2023-02-19T09:00:44;101298.88;;;9.26;55.04
7264;BME280;3673;52.480;13.348;2023-02-19T09:03:11;101301.88;;;8.94;55.45
7264;BME280;3673;52.480;13.348;2023-02-19T09:05:38;101306.47;;;9.10;55.33
7264;BME280;3673;52.480;13.348;2023-02-19T09:08:05;101312.22;;;8.88;55.95
7264;BME280;3673;52.480;13.348;2023-02-19T09:10:33;101311.25;;;9.43;54.73
7264;BME280;3673;52.480;13.348;2023-02-19T09:13:00;101299.59;;;9.87;53.53
7264;BME280;3673;52.480;13.348;2023-02-19T09:15:31;101306.22;;;10.36;52.86
7264;BME280;3673;52.480;13.348;2023-02-19T09:17:58;101308.47;;;10.03;53.16
7264;BME280;3673;52.480;13.348;2023-02-19T09:20:25;101328.16;;;9.07;54.96
7264;BME280;3673;52.480;13.348;2023-02-19T09:22:56;101316.38;;;10.07;53.36
7264;BME280;3673;52.480;13.348;2023-02-19T09:25:23;101326.16;;;10.23;52.23
7264;BME280;3673;52.480;13.348;2023-02-19T09:27:54;101322.66;;;10.23;52.36
7264;BME280;3673;52.480;13.348;2023-02-19T09:30:22;101328.16;;;10.50;51.89
7264;BME280;3673;52.480;13.348;2023-02-19T09:32:48;101332.72;;;10.74;50.96
7264;BME280;3673;52.480;13.348;2023-02-19T09:35:15;101339.41;;;10.40;52.16
7264;BME280;3673;52.480;13.348;2023-02-19T09:37:42;101343.13;;;10.69;51.26
7264;BME280;3673;52.480;13.348;2023-02-19T09:40:09;101347.66;;;10.00;52.44
7264;BME280;3673;52.480;13.348;2023-02-19T09:42:40;101344.38;;;10.16;52.95
7264;BME280;3673;52.480;13.348;2023-02-19T09:45:16;101341.19;;;10.46;52.07
7264;BME280;3673;52.480;13.348;2023-02-19T09:47:45;101352.03;;;10.90;51.40
7264;BME280;3673;52.480;13.348;2023-02-19T09:50:16;101347.75;;;11.02;50.17
7264;BME280;3673;52.480;13.348;2023-02-19T09:52:48;101354.19;;;10.38;51.52
7264;BME280;3673;52.480;13.348;2023-02-19T09:55:28;101359.09;;;10.11;51.48
7264;BME280;3673;52.480;13.348;2023-02-19T09:57:58;101360.34;;;9.71;51.84
7264;BME280;3673;52.480;13.348;2023-02-19T10:00:32;101366.38;;;10.36;51.75
7264;BME280;3673;52.480;13.348;2023-02-19T10:03:04;101372.03;;;10.84;50.60
7264;BME280;3673;52.480;13.348;2023-02-19T10:05:32;101369.56;;;11.00;49.41
7264;BME280;3673;52.480;13.348;2023-02-19T10:08:01;101386.09;;;10.11;50.14
7264;BME280;3673;52.480;13.348;2023-02-19T10:10:32;101378.28;;;10.11;50.83
7264;BME280;3673;52.480;13.348;2023-02-19T10:13:16;101380.88;;;10.10;50.71
7264;BME280;3673;52.480;13.348;2023-02-19T10:15:47;101383.81;;;10.39;49.92
7264;BME280;3673;52.480;13.348;2023-02-19T10:18:21;101395.78;;;11.06;48.64
7264;BME280;3673;52.480;13.348;2023-02-19T10:20:50;101396.75;;;11.21;48.16
7264;BME280;3673;52.480;13.348;2023-02-19T10:23:17;101403.03;;;11.46;47.13
7264;BME280;3673;52.480;13.348;2023-02-19T10:25:48;101411.91;;;10.56;47.69
7264;BME280;3673;52.480;13.348;2023-02-19T10:28:18;101413.34;;;10.24;48.73
7264;BME280;3673;52.480;13.348;2023-02-19T10:30:52;101410.06;;;11.52;46.91
7264;BME280;3673;52.480;13.348;2023-02-19T10:33:19;101417.94;;;11.53;46.38
7264;BME280;3673;52.480;13.348;2023-02-19T10:35:55;101427.63;;;11.66;46.09
7264;BME280;3673;52.480;13.348;2023-02-19T10:38:26;101423.03;;;11.32;46.16
7264;BME280;3673;52.480;13.348;2023-02-19T10:41:01;101428.16;;;11.18;46.62
7264;BME280;3673;52.480;13.348;2023-02-19T10:43:32;101434.13;;;10.99;46.86
7264;BME280;3673;52.480;13.348;2023-02-19T10:46:05;101433.38;;;11.15;46.44
7264;BME280;3673;52.480;13.348;2023-02-19T10:48:35;101441.53;;;11.53;45.71
7264;BME280;3673;52.480;13.348;2023-02-19T10:51:07;101446.25;;;10.91;47.05
7264;BME280;3673;52.480;13.348;2023-02-19T10:53:42;101438.63;;;11.15;46.65
7264;BME280;3673;52.480;13.348;2023-02-19T10:56:13;101449.22;;;11.30;45.24
7264;BME280;3673;52.480;13.348;2023-02-19T10:58:42;101462.53;;;11.59;45.03
7264;BME280;3673;52.480;13.348;2023-02-19T11:01:16;101454.75;;;11.74;44.20
7264;BME280;3673;52.480;13.348;2023-02-19T11:03:46;101466.75;;;11.39;43.66
7264;BME280;3673;52.480;13.348;2023-02-19T11:06:15;101467.03;;;11.77;42.82
7264;BME280;3673;52.480;13.348;2023-02-19T11:08:52;101483.16;;;11.18;42.40
7264;BME280;3673;52.480;13.348;2023-02-19T11:11:34;101479.03;;;11.48;42.18
7264;BME280;3673;52.480;13.348;2023-02-19T11:14:13;101481.69;;;11.51;41.84
7264;BME280;3673;52.480;13.348;2023-02-19T11:16:45;101493.84;;;10.51;43.83
7264;BME280;3673;52.480;13.348;2023-02-19T11:19:27;101498.50;;;10.79;43.99
7264;BME280;3673;52.480;13.348;2023-02-19T11:21:55;101493.94;;;11.58;43.79
7264;BME280;3673;52.480;13.348;2023-02-19T11:24:35;101504.66;;;11.86;43.25
7264;BME280;3673;52.480;13.348;2023-02-19T11:27:12;101501.19;;;11.89;42.75
7264;BME280;3673;52.480;13.348;2023-02-19T11:29:42;101493.38;;;12.04;42.80
7264;BME280;3673;52.480;13.348;2023-02-19T11:32:29;101497.13;;;11.16;43.77
7264;BME280;3673;52.480;13.348;2023-02-19T11:35:19;101498.38;;;11.66;43.69
7264;BME280;3673;52.480;13.348;2023-02-19T11:37:56;101509.91;;;11.83;43.16
7264;BME280;3673;52.480;13.348;2023-02-19T11:40:35;101505.28;;;11.54;43.32
7264;BME280;3673;52.480;13.348;2023-02-19T11:43:16;101519.59;;;12.00;42.17
7264;BME280;3673;52.480;13.348;2023-02-19T11:45:51;101514.34;;;11.97;42.17
7264;BME280;3673;52.480;13.348;2023-02-19T11:48:50;101506.59;;;12.22;41.76
7264;BME280;3673;52.480;13.348;2023-02-19T11:51:49;101511.00;;;12.28;42.25
7264;BME280;3673;52.480;13.348;2023-02-19T11:54:35;101503.69;;;11.72;40.98
7264;BME280;3673;52.480;13.348;2023-02-19T11:57:11;101498.94;;;11.27;41.83
7264;BME280;3673;52.480;13.348;2023-02-19T11:59:48;101498.72;;;12.21;41.22
7264;BME280;3673;52.480;13.348;2023-02-19T12:02:46;101497.13;;;12.53;40.81
7264;BME280;3673;52.480;13.348;2023-02-19T12:05:27;101499.72;;;12.58;40.28
7264;BME280;3673;52.480;13.348;2023-02-19T12:08:16;101509.97;;;11.96;40.95
7264;BME280;3673;52.480;13.348;2023-02-19T12:11:13;101511.97;;;12.51;41.00
7264;BME280;3673;52.480;13.348;2023-02-19T12:14:20;101518.97;;;12.58;40.35
7264;BME280;3673;52.480;13.348;2023-02-19T12:16:56;101526.06;;;12.80;39.15
7264;BME280;3673;52.480;13.348;2023-02-19T12:20:00;101515.56;;;12.91;38.90
7264;BME280;3673;52.480;13.348;2023-02-19T12:22:36;101527.00;;;13.93;37.40
7264;BME280;3673;52.480;13.348;2023-02-19T12:25:30;101518.25;;;13.68;37.34
7264;BME280;3673;52.480;13.348;2023-02-19T12:28:54;101533.19;;;13.21;38.21
7264;BME280;3673;52.480;13.348;2023-02-19T12:31:47;101536.50;;;12.56;37.14
7264;BME280;3673;52.480;13.348;2023-02-19T12:34:34;101545.81;;;11.97;38.67
7264;BME280;3673;52.480;13.348;2023-02-19T12:37:21;101540.72;;;12.24;38.25
7264;BME280;3673;52.480;13.348;2023-02-19T12:40:07;101545.41;;;13.10;37.55
7264;BME280;3673;52.480;13.348;2023-02-19T12:42:50;101553.25;;;14.23;35.71
7264;BME280;3673;52.480;13.348;2023-02-19T12:45:30;101541.66;;;14.73;34.02
7264;BME280;3673;52.480;13.348;2023-02-19T12:48:03;101548.56;;;14.92;33.23
7264;BME280;3673;52.480;13.348;2023-02-19T12:50:34;101550.66;;;14.01;34.84
7264;BME280;3673;52.480;13.348;2023-02-19T12:53:20;101553.22;;;14.22;34.50
7264;BME280;3673;52.480;13.348;2023-02-19T12:55:50;101566.47;;;13.45;36.22
7264;BME280;3673;52.480;13.348;2023-02-19T12:58:27;101555.44;;;12.02;37.40
7264;BME280;3673;52.480;13.348;2023-02-19T13:00:57;101565.50;;;11.46;38.99
7264;BME280;3673;52.480;13.348;2023-02-19T13:03:31;101572.78;;;11.77;39.15
7264;BME280;3673;52.480;13.348;2023-02-19T13:06:05;101568.75;;;12.32;38.89
7264;BME280;3673;52.480;13.348;2023-02-19T13:08:39;101573.09;;;12.29;38.13
7264;BME280;3673;52.480;13.348;2023-02-19T13:11:15;101573.00;;;12.11;38.41
7264;BME280;3673;52.480;13.348;2023-02-19T13:13:47;101571.91;;;11.81;38.71
7264;BME280;3673;52.480;13.348;2023-02-19T13:16:18;101580.31;;;12.71;36.78
7264;BME280;3673;52.480;13.348;2023-02-19T13:18:49;101580.50;;;13.30;35.17
7264;BME280;3673;52.480;13.348;2023-02-19T13:21:20;101590.16;;;13.63;34.24
7264;BME280;3673;52.480;13.348;2023-02-19T13:24:04;101583.13;;;13.65;34.46
7264;BME280;3673;52.480;13.348;2023-02-19T13:26:58;101574.34;;;13.61;35.21
7264;BME280;3673;52.480;13.348;2023-02-19T13:29:50;101582.19;;;13.11;35.24
7264;BME280;3673;52.480;13.348;2023-02-19T13:32:39;101578.75;;;13.71;34.54
7264;BME280;3673;52.480;13.348;2023-02-19T13:35:25;101585.66;;;14.50;33.69